F/V Oceanie — FVBW — position and weather

sailwx.info

Track history (hours):
 
Tides and Currents Weather Stations Pressure Air Temp Water Temp Dewpoint Dewpoint Depression Visibility Wind Speed Wind Dir Waves Ship Positions

F/V Oceanie

Last reported at 2017-Feb-24 22:33 UTC. Time now 2017-Feb-27 06:56 UTC.
Position N 47°44' W 003°22'.

Length 16 m.

Type: Fishing. MMSI: 228370000.

Date/timePositionNaut miles runAvg speedWind from/ knotsBaromVisibWave heightAir tempDewpointWater temp
2017-Feb-24 22:33N 47°44' W 003°22'8 8.3
2017-Feb-24 21:33N 47°36' W 003°25'6 5.8
2017-Feb-24 20:33N 47°32' W 003°32'3 3.3
2017-Feb-24 19:33N 47°30' W 003°36'3 3.5
2017-Feb-24 18:33N 47°32' W 003°40'3 2.6
2017-Feb-24 17:33N 47°29' W 003°39'3 2.6
2017-Feb-24 16:33N 47°32' W 003°39'3 3.0
2017-Feb-24 15:33N 47°29' W 003°40'2 1.7
2017-Feb-24 14:33N 47°29' W 003°38'3 3.0
2017-Feb-24 13:33N 47°31' W 003°41'2 2.4
2017-Feb-24 12:33N 47°30' W 003°38'3 2.9
2017-Feb-24 11:33N 47°31' W 003°42'3 3.3
2017-Feb-24 10:33N 47°28' W 003°40'4 3.8
2017-Feb-24 09:33N 47°32' W 003°39'3 2.7
2017-Feb-24 08:33N 47°30' W 003°43'3 2.6
2017-Feb-24 07:33N 47°30' W 003°39'1 1.2
2017-Feb-24 06:33N 47°31' W 003°40'5 5.0
2017-Feb-24 05:33N 47°35' W 003°34'8 8.1
2017-Feb-24 04:33N 47°41' W 003°26'4 4.0
2017-Feb-24 03:33N 47°44' W 003°22'0 0.1
2017-Feb-24 02:33N 47°44' W 003°22'4 4.1
2017-Feb-24 01:33N 47°40' W 003°22'9 9.0
2017-Feb-24 00:33N 47°31' W 003°27'9 9.0
2017-Feb-23 23:33N 47°23' W 003°32'5 4.9
2017-Feb-23 22:33N 47°19' W 003°36'4 4.1
2017-Feb-23 21:33N 47°19' W 003°42'3 2.8
2017-Feb-23 20:31N 47°21' W 003°44'3 2.9
2017-Feb-23 19:27N 47°19' W 003°42'3 3.7
2017-Feb-23 18:33N 47°22' W 003°43'3 3.4
2017-Feb-23 17:33N 47°24' W 003°47'4 3.9
2017-Feb-23 16:33N 47°27' W 003°43'3 2.8
2017-Feb-23 15:33N 47°28' W 003°39'2 2.0
2017-Feb-23 14:33N 47°29' W 003°42'3 2.9
2017-Feb-23 13:33N 47°32' W 003°39'4 3.7
2017-Feb-23 12:33N 47°28' W 003°40'2 1.9
2017-Feb-23 11:33N 47°30' W 003°41'2 2.5
2017-Feb-23 10:33N 47°32' W 003°40'3 3.1
2017-Feb-23 09:33N 47°29' W 003°39'2 2.1
2017-Feb-23 08:33N 47°29' W 003°42'3 3.3
2017-Feb-23 07:33N 47°31' W 003°39'4 3.7
2017-Feb-23 06:33N 47°32' W 003°34'6 5.8
2017-Feb-23 05:33N 47°32' W 003°25'2 1.9
2017-Feb-23 04:33N 47°33' W 003°27'3 3.1
2017-Feb-23 03:33N 47°30' W 003°25'1 1.3
2017-Feb-23 02:33N 47°31' W 003°24'3 3.3
2017-Feb-23 01:33N 47°29' W 003°20'3 2.5
2017-Feb-23 00:33N 47°30' W 003°24'3 3.2
2017-Feb-22 23:33N 47°32' W 003°27'3 3.1
2017-Feb-22 22:33N 47°30' W 003°24'2 2.5
2017-Feb-22 21:33N 47°28' W 003°26'2 2.3
2017-Feb-22 20:33N 47°30' W 003°28'4 4.3
2017-Feb-22 19:33N 47°31' W 003°34'3 3.2
2017-Feb-22 18:33N 47°31' W 003°39'3 2.6
2017-Feb-22 17:33N 47°31' W 003°42'3 2.7
2017-Feb-22 16:32N 47°31' W 003°38'4 4.0
2017-Feb-22 15:32N 47°27' W 003°41'3 2.4
2017-Feb-22 14:25N 47°30' W 003°40'2 2.6
2017-Feb-22 13:33N 47°27' W 003°40'4 3.6
2017-Feb-22 12:22N 47°32' W 003°39'3 3.2
2017-Feb-22 11:30N 47°30' W 003°42'3 3.6
2017-Feb-22 10:31N 47°27' W 003°40'3 3.4
2017-Feb-22 09:33N 47°25' W 003°35'2 2.2
2017-Feb-22 08:32N 47°26' W 003°38'4 3.5
2017-Feb-22 07:29N 47°30' W 003°36'3 2.8
2017-Feb-22 06:33N 47°28' W 003°39'4 3.6
2017-Feb-22 05:33N 47°31' W 003°37'4 3.9
2017-Feb-22 04:32N 47°35' W 003°35'6 6.1
2017-Feb-22 03:33N 47°40' W 003°29'6 6.2
2017-Feb-22 02:33N 47°44' W 003°22'4 3.5
2017-Feb-22 01:31N 47°40' W 003°22'7 7.5
2017-Feb-22 00:33N 47°33' W 003°27'3 3.2
2017-Feb-21 23:33N 47°31' W 003°25'1 1.0
2017-Feb-21 22:33N 47°31' W 003°24'4 3.5
2017-Feb-21 21:33N 47°29' W 003°20'3 3.2
2017-Feb-21 20:33N 47°30' W 003°25'4 4.2
2017-Feb-21 19:33N 47°32' W 003°30'3 3.3
2017-Feb-21 18:33N 47°32' W 003°35'4 3.8
2017-Feb-21 17:30N 47°28' W 003°35'2 1.8
2017-Feb-21 16:33N 47°27' W 003°36'2 2.1
2017-Feb-21 15:33N 47°29' W 003°36'3 2.5
2017-Feb-21 14:33N 47°26' W 003°35'2 1.9
2017-Feb-21 13:33N 47°27' W 003°37'3 2.9
2017-Feb-21 12:33N 47°30' W 003°35'3 2.8
2017-Feb-21 11:33N 47°28' W 003°38'3 3.0
2017-Feb-21 10:33N 47°27' W 003°34'3 3.4
2017-Feb-21 09:33N 47°29' W 003°38'2 2.0
2017-Feb-21 08:33N 47°28' W 003°35'4 3.7
2017-Feb-21 07:33N 47°32' W 003°36'3 3.2
2017-Feb-21 06:33N 47°30' W 003°39'2 2.3
2017-Feb-21 05:33N 47°28' W 003°36'4 4.1
2017-Feb-21 04:33N 47°32' W 003°36'9 8.7
2017-Feb-21 03:33N 47°40' W 003°29'6 6.3
2017-Feb-21 02:33N 47°44' W 003°22'4 4.2
2017-Feb-21 01:33N 47°40' W 003°22'7 6.9
2017-Feb-21 00:33N 47°33' W 003°27'3 3.0
2017-Feb-20 23:33N 47°30' W 003°25'1 1.4
2017-Feb-20 22:33N 47°31' W 003°24'3 3.4
2017-Feb-20 21:33N 47°29' W 003°20'3 3.1
2017-Feb-20 20:33N 47°30' W 003°25'4 3.7
2017-Feb-20 19:33N 47°32' W 003°29'4 4.3
2017-Feb-20 18:33N 47°30' W 003°34'3 3.1
2017-Feb-20 17:33N 47°27' W 003°35'2 1.6
2017-Feb-20 16:33N 47°28' W 003°36'3 3.4
2017-Feb-20 15:33N 47°24' W 003°36'3 2.8
2017-Feb-20 14:33N 47°27' W 003°38'3 2.6
2017-Feb-20 13:33N 47°28' W 003°35'2 2.1
2017-Feb-20 12:33N 47°27' W 003°38'4 4.1
2017-Feb-20 11:33N 47°31' W 003°41'2 1.8
2017-Feb-20 10:33N 47°30' W 003°39'4 3.5
2017-Feb-20 09:33N 47°27' W 003°37'3 2.6
2017-Feb-20 08:33N 47°24' W 003°37'3 3.0
2017-Feb-20 07:33N 47°27' W 003°36'4 3.7
2017-Feb-20 06:33N 47°31' W 003°36'7 6.6
2017-Feb-20 05:33N 47°37' W 003°33'9 8.5
2017-Feb-20 04:33N 47°42' W 003°22'2 0.0
2017-Feb-18 03:14N 47°44' W 003°22'0 0.0
2017-Feb-18 02:33N 47°44' W 003°22'2 2.4
2017-Feb-18 01:33N 47°41' W 003°22'9 8.5
2017-Feb-18 00:33N 47°33' W 003°27'4 3.6
2017-Feb-17 23:33N 47°30' W 003°24'2 2.5
2017-Feb-17 22:33N 47°31' W 003°27'2 2.3
2017-Feb-17 21:33N 47°31' W 003°24'2 1.9
2017-Feb-17 20:33N 47°30' W 003°23'3 3.5
2017-Feb-17 19:33N 47°32' W 003°26'3 2.9
2017-Feb-17 18:33N 47°33' W 003°30'4 4.3
2017-Feb-17 17:33N 47°29' W 003°30'4 4.3
2017-Feb-17 16:33N 47°24' W 003°28'2 2.3
2017-Feb-17 15:33N 47°24' W 003°31'1 1.4
2017-Feb-17 14:33N 47°22' W 003°30'1 0.7
2017-Feb-17 13:33N 47°22' W 003°30'2 1.7
2017-Feb-17 12:33N 47°21' W 003°28'3 3.2
2017-Feb-17 11:33N 47°23' W 003°32'0 0.4
2017-Feb-17 10:33N 47°23' W 003°31'1 0.7
2017-Feb-17 09:33N 47°22' W 003°31'2 2.0
2017-Feb-17 08:33N 47°22' W 003°28'1 0.6
2017-Feb-17 07:33N 47°22' W 003°29'4 3.6
2017-Feb-17 06:33N 47°25' W 003°27'5 4.6
2017-Feb-17 05:33N 47°30' W 003°29'8 7.5
2017-Feb-17 04:33N 47°36' W 003°23'8 7.8
2017-Feb-17 03:33N 47°44' W 003°22'0 0.2
2017-Feb-17 02:33N 47°44' W 003°22'6 6.3
2017-Feb-17 01:33N 47°38' W 003°23'7 7.3
2017-Feb-17 00:33N 47°30' W 003°21'3 3.0
2017-Feb-16 23:33N 47°30' W 003°26'4 3.5
2017-Feb-16 22:33N 47°32' W 003°30'3 2.5
2017-Feb-16 21:33N 47°33' W 003°26'4 3.8
2017-Feb-16 20:33N 47°31' W 003°22'2 1.8
2017-Feb-16 19:33N 47°30' W 003°24'3 2.7
2017-Feb-16 18:33N 47°32' W 003°27'2 2.4
2017-Feb-16 17:33N 47°31' W 003°24'4 4.0
2017-Feb-16 16:33N 47°27' W 003°26'4 4.4
2017-Feb-16 15:33N 47°23' W 003°29'1 1.4
2017-Feb-16 14:33N 47°22' W 003°28'3 3.2
2017-Feb-16 13:33N 47°23' W 003°33'4 3.7
2017-Feb-16 12:33N 47°21' W 003°28'4 3.7
2017-Feb-16 11:33N 47°23' W 003°32'1 0.7
2017-Feb-16 10:33N 47°24' W 003°31'0 0.2
2017-Feb-16 09:33N 47°24' W 003°31'1 1.4
2017-Feb-16 08:33N 47°22' W 003°30'1 1.1
2017-Feb-16 07:33N 47°21' W 003°30'1 1.1
2017-Feb-16 06:32N 47°22' W 003°29'1 0.9
2017-Feb-16 05:33N 47°22' W 003°30'3 3.4
2017-Feb-16 04:33N 47°25' W 003°26'4 3.8
2017-Feb-16 03:33N 47°28' W 003°29'6 6.4
2017-Feb-16 02:33N 47°34' W 003°26'9 8.5
2017-Feb-16 01:33N 47°42' W 003°22'0 0.4
2017-Feb-16 00:33N 47°42' W 003°22'9 9.2
2017-Feb-15 23:33N 47°33' W 003°22'8 8.0
2017-Feb-15 22:33N 47°25' W 003°21'1 0.6
2017-Feb-15 21:33N 47°25' W 003°21'2 2.0
2017-Feb-15 20:33N 47°25' W 003°24'1 1.3
2017-Feb-15 19:33N 47°26' W 003°22'4 4.0
2017-Feb-15 18:33N 47°25' W 003°28'4 3.6
2017-Feb-15 17:33N 47°21' W 003°29'1 0.9
2017-Feb-15 16:33N 47°21' W 003°28'1 1.0
2017-Feb-15 15:33N 47°22' W 003°28'1 1.4
2017-Feb-15 14:33N 47°22' W 003°30'3 2.6
2017-Feb-15 13:33N 47°20' W 003°27'2 2.1
2017-Feb-15 12:33N 47°22' W 003°28'1 1.2
2017-Feb-15 11:33N 47°22' W 003°30'2 1.7
2017-Feb-15 10:33N 47°21' W 003°28'2 2.2
2017-Feb-15 09:33N 47°20' W 003°26'4 3.7
2017-Feb-15 08:33N 47°22' W 003°30'1 1.2
2017-Feb-15 07:33N 47°22' W 003°28'1 1.1
2017-Feb-15 06:33N 47°21' W 003°28'4 3.6
2017-Feb-15 05:33N 47°24' W 003°29'4 3.8
2017-Feb-15 04:33N 47°28' W 003°30'4 3.8
2017-Feb-15 03:33N 47°32' W 003°30'8 8.2
2017-Feb-15 02:33N 47°38' W 003°23'5 5.4
2017-Feb-15 01:33N 47°44' W 003°22'3 2.5
2017-Feb-15 00:33N 47°41' W 003°22'9 8.8
2017-Feb-14 23:33N 47°33' W 003°28'  
Track history (hours):
 
Tides and Currents Weather Stations Pressure Air Temp Water Temp Dewpoint Dewpoint Depression Visibility Wind Speed Wind Dir Waves Ship Positions

F/V Oceanie

Last reported at 2017-Feb-24 22:33 UTC. Time now 2017-Feb-27 06:56 UTC.
Position N 47°44' W 003°22'.

Length 16 m.

Type: Fishing. MMSI: 228370000.

Date/timePositionNaut miles runAvg speedWind from/ knotsBaromVisibWave heightAir tempDewpointWater temp
2017-Feb-24 22:33N 47°44' W 003°22'8 8.3
2017-Feb-24 21:33N 47°36' W 003°25'6 5.8
2017-Feb-24 20:33N 47°32' W 003°32'3 3.3
2017-Feb-24 19:33N 47°30' W 003°36'3 3.5
2017-Feb-24 18:33N 47°32' W 003°40'3 2.6
2017-Feb-24 17:33N 47°29' W 003°39'3 2.6
2017-Feb-24 16:33N 47°32' W 003°39'3 3.0
2017-Feb-24 15:33N 47°29' W 003°40'2 1.7
2017-Feb-24 14:33N 47°29' W 003°38'3 3.0
2017-Feb-24 13:33N 47°31' W 003°41'2 2.4
2017-Feb-24 12:33N 47°30' W 003°38'3 2.9
2017-Feb-24 11:33N 47°31' W 003°42'3 3.3
2017-Feb-24 10:33N 47°28' W 003°40'4 3.8
2017-Feb-24 09:33N 47°32' W 003°39'3 2.7
2017-Feb-24 08:33N 47°30' W 003°43'3 2.6
2017-Feb-24 07:33N 47°30' W 003°39'1 1.2
2017-Feb-24 06:33N 47°31' W 003°40'5 5.0
2017-Feb-24 05:33N 47°35' W 003°34'8 8.1
2017-Feb-24 04:33N 47°41' W 003°26'4 4.0
2017-Feb-24 03:33N 47°44' W 003°22'0 0.1
2017-Feb-24 02:33N 47°44' W 003°22'4 4.1
2017-Feb-24 01:33N 47°40' W 003°22'9 9.0
2017-Feb-24 00:33N 47°31' W 003°27'9 9.0
2017-Feb-23 23:33N 47°23' W 003°32'5 4.9
2017-Feb-23 22:33N 47°19' W 003°36'4 4.1
2017-Feb-23 21:33N 47°19' W 003°42'3 2.8
2017-Feb-23 20:31N 47°21' W 003°44'3 2.9
2017-Feb-23 19:27N 47°19' W 003°42'3 3.7
2017-Feb-23 18:33N 47°22' W 003°43'3 3.4
2017-Feb-23 17:33N 47°24' W 003°47'4 3.9
2017-Feb-23 16:33N 47°27' W 003°43'3 2.8
2017-Feb-23 15:33N 47°28' W 003°39'2 2.0
2017-Feb-23 14:33N 47°29' W 003°42'3 2.9
2017-Feb-23 13:33N 47°32' W 003°39'4 3.7
2017-Feb-23 12:33N 47°28' W 003°40'2 1.9
2017-Feb-23 11:33N 47°30' W 003°41'2 2.5
2017-Feb-23 10:33N 47°32' W 003°40'3 3.1
2017-Feb-23 09:33N 47°29' W 003°39'2 2.1
2017-Feb-23 08:33N 47°29' W 003°42'3 3.3
2017-Feb-23 07:33N 47°31' W 003°39'4 3.7
2017-Feb-23 06:33N 47°32' W 003°34'6 5.8
2017-Feb-23 05:33N 47°32' W 003°25'2 1.9
2017-Feb-23 04:33N 47°33' W 003°27'3 3.1
2017-Feb-23 03:33N 47°30' W 003°25'1 1.3
2017-Feb-23 02:33N 47°31' W 003°24'3 3.3
2017-Feb-23 01:33N 47°29' W 003°20'3 2.5
2017-Feb-23 00:33N 47°30' W 003°24'3 3.2
2017-Feb-22 23:33N 47°32' W 003°27'3 3.1
2017-Feb-22 22:33N 47°30' W 003°24'2 2.5
2017-Feb-22 21:33N 47°28' W 003°26'2 2.3
2017-Feb-22 20:33N 47°30' W 003°28'4 4.3
2017-Feb-22 19:33N 47°31' W 003°34'3 3.2
2017-Feb-22 18:33N 47°31' W 003°39'3 2.6
2017-Feb-22 17:33N 47°31' W 003°42'3 2.7
2017-Feb-22 16:32N 47°31' W 003°38'4 4.0
2017-Feb-22 15:32N 47°27' W 003°41'3 2.4
2017-Feb-22 14:25N 47°30' W 003°40'2 2.6
2017-Feb-22 13:33N 47°27' W 003°40'4 3.6
2017-Feb-22 12:22N 47°32' W 003°39'3 3.2
2017-Feb-22 11:30N 47°30' W 003°42'3 3.6
2017-Feb-22 10:31N 47°27' W 003°40'3 3.4
2017-Feb-22 09:33N 47°25' W 003°35'2 2.2
2017-Feb-22 08:32N 47°26' W 003°38'4 3.5
2017-Feb-22 07:29N 47°30' W 003°36'3 2.8
2017-Feb-22 06:33N 47°28' W 003°39'4 3.6
2017-Feb-22 05:33N 47°31' W 003°37'4 3.9
2017-Feb-22 04:32N 47°35' W 003°35'6 6.1
2017-Feb-22 03:33N 47°40' W 003°29'6 6.2
2017-Feb-22 02:33N 47°44' W 003°22'4 3.5
2017-Feb-22 01:31N 47°40' W 003°22'7 7.5
2017-Feb-22 00:33N 47°33' W 003°27'3 3.2
2017-Feb-21 23:33N 47°31' W 003°25'1 1.0
2017-Feb-21 22:33N 47°31' W 003°24'4 3.5
2017-Feb-21 21:33N 47°29' W 003°20'3 3.2
2017-Feb-21 20:33N 47°30' W 003°25'4 4.2
2017-Feb-21 19:33N 47°32' W 003°30'3 3.3
2017-Feb-21 18:33N 47°32' W 003°35'4 3.8
2017-Feb-21 17:30N 47°28' W 003°35'2 1.8
2017-Feb-21 16:33N 47°27' W 003°36'2 2.1
2017-Feb-21 15:33N 47°29' W 003°36'3 2.5
2017-Feb-21 14:33N 47°26' W 003°35'2 1.9
2017-Feb-21 13:33N 47°27' W 003°37'3 2.9
2017-Feb-21 12:33N 47°30' W 003°35'3 2.8
2017-Feb-21 11:33N 47°28' W 003°38'3 3.0
2017-Feb-21 10:33N 47°27' W 003°34'3 3.4
2017-Feb-21 09:33N 47°29' W 003°38'2 2.0
2017-Feb-21 08:33N 47°28' W 003°35'4 3.7
2017-Feb-21 07:33N 47°32' W 003°36'3 3.2
2017-Feb-21 06:33N 47°30' W 003°39'2 2.3
2017-Feb-21 05:33N 47°28' W 003°36'4 4.1
2017-Feb-21 04:33N 47°32' W 003°36'9 8.7
2017-Feb-21 03:33N 47°40' W 003°29'6 6.3
2017-Feb-21 02:33N 47°44' W 003°22'4 4.2
2017-Feb-21 01:33N 47°40' W 003°22'7 6.9
2017-Feb-21 00:33N 47°33' W 003°27'3 3.0
2017-Feb-20 23:33N 47°30' W 003°25'1 1.4
2017-Feb-20 22:33N 47°31' W 003°24'3 3.4
2017-Feb-20 21:33N 47°29' W 003°20'3 3.1
2017-Feb-20 20:33N 47°30' W 003°25'4 3.7
2017-Feb-20 19:33N 47°32' W 003°29'4 4.3
2017-Feb-20 18:33N 47°30' W 003°34'3 3.1
2017-Feb-20 17:33N 47°27' W 003°35'2 1.6
2017-Feb-20 16:33N 47°28' W 003°36'3 3.4
2017-Feb-20 15:33N 47°24' W 003°36'3 2.8
2017-Feb-20 14:33N 47°27' W 003°38'3 2.6
2017-Feb-20 13:33N 47°28' W 003°35'2 2.1
2017-Feb-20 12:33N 47°27' W 003°38'4 4.1
2017-Feb-20 11:33N 47°31' W 003°41'2 1.8
2017-Feb-20 10:33N 47°30' W 003°39'4 3.5
2017-Feb-20 09:33N 47°27' W 003°37'3 2.6
2017-Feb-20 08:33N 47°24' W 003°37'3 3.0
2017-Feb-20 07:33N 47°27' W 003°36'4 3.7
2017-Feb-20 06:33N 47°31' W 003°36'7 6.6
2017-Feb-20 05:33N 47°37' W 003°33'9 8.5
2017-Feb-20 04:33N 47°42' W 003°22'2 0.0
2017-Feb-18 03:14N 47°44' W 003°22'0 0.0
2017-Feb-18 02:33N 47°44' W 003°22'2 2.4
2017-Feb-18 01:33N 47°41' W 003°22'9 8.5
2017-Feb-18 00:33N 47°33' W 003°27'4 3.6
2017-Feb-17 23:33N 47°30' W 003°24'2 2.5
2017-Feb-17 22:33N 47°31' W 003°27'2 2.3
2017-Feb-17 21:33N 47°31' W 003°24'2 1.9
2017-Feb-17 20:33N 47°30' W 003°23'3 3.5
2017-Feb-17 19:33N 47°32' W 003°26'3 2.9
2017-Feb-17 18:33N 47°33' W 003°30'4 4.3
2017-Feb-17 17:33N 47°29' W 003°30'4 4.3
2017-Feb-17 16:33N 47°24' W 003°28'2 2.3
2017-Feb-17 15:33N 47°24' W 003°31'1 1.4
2017-Feb-17 14:33N 47°22' W 003°30'1 0.7
2017-Feb-17 13:33N 47°22' W 003°30'2 1.7
2017-Feb-17 12:33N 47°21' W 003°28'3 3.2
2017-Feb-17 11:33N 47°23' W 003°32'0 0.4
2017-Feb-17 10:33N 47°23' W 003°31'1 0.7
2017-Feb-17 09:33N 47°22' W 003°31'2 2.0
2017-Feb-17 08:33N 47°22' W 003°28'1 0.6
2017-Feb-17 07:33N 47°22' W 003°29'4 3.6
2017-Feb-17 06:33N 47°25' W 003°27'5 4.6
2017-Feb-17 05:33N 47°30' W 003°29'8 7.5
2017-Feb-17 04:33N 47°36' W 003°23'8 7.8
2017-Feb-17 03:33N 47°44' W 003°22'0 0.2
2017-Feb-17 02:33N 47°44' W 003°22'6 6.3
2017-Feb-17 01:33N 47°38' W 003°23'7 7.3
2017-Feb-17 00:33N 47°30' W 003°21'3 3.0
2017-Feb-16 23:33N 47°30' W 003°26'4 3.5
2017-Feb-16 22:33N 47°32' W 003°30'3 2.5
2017-Feb-16 21:33N 47°33' W 003°26'4 3.8
2017-Feb-16 20:33N 47°31' W 003°22'2 1.8
2017-Feb-16 19:33N 47°30' W 003°24'3 2.7
2017-Feb-16 18:33N 47°32' W 003°27'2 2.4
2017-Feb-16 17:33N 47°31' W 003°24'4 4.0
2017-Feb-16 16:33N 47°27' W 003°26'4 4.4
2017-Feb-16 15:33N 47°23' W 003°29'1 1.4
2017-Feb-16 14:33N 47°22' W 003°28'3 3.2
2017-Feb-16 13:33N 47°23' W 003°33'4 3.7
2017-Feb-16 12:33N 47°21' W 003°28'4 3.7
2017-Feb-16 11:33N 47°23' W 003°32'1 0.7
2017-Feb-16 10:33N 47°24' W 003°31'0 0.2
2017-Feb-16 09:33N 47°24' W 003°31'1 1.4
2017-Feb-16 08:33N 47°22' W 003°30'1 1.1
2017-Feb-16 07:33N 47°21' W 003°30'1 1.1
2017-Feb-16 06:32N 47°22' W 003°29'1 0.9
2017-Feb-16 05:33N 47°22' W 003°30'3 3.4
2017-Feb-16 04:33N 47°25' W 003°26'4 3.8
2017-Feb-16 03:33N 47°28' W 003°29'6 6.4
2017-Feb-16 02:33N 47°34' W 003°26'9 8.5
2017-Feb-16 01:33N 47°42' W 003°22'0 0.4
2017-Feb-16 00:33N 47°42' W 003°22'9 9.2
2017-Feb-15 23:33N 47°33' W 003°22'8 8.0
2017-Feb-15 22:33N 47°25' W 003°21'1 0.6
2017-Feb-15 21:33N 47°25' W 003°21'2 2.0
2017-Feb-15 20:33N 47°25' W 003°24'1 1.3
2017-Feb-15 19:33N 47°26' W 003°22'4 4.0
2017-Feb-15 18:33N 47°25' W 003°28'4 3.6
2017-Feb-15 17:33N 47°21' W 003°29'1 0.9
2017-Feb-15 16:33N 47°21' W 003°28'1 1.0
2017-Feb-15 15:33N 47°22' W 003°28'1 1.4
2017-Feb-15 14:33N 47°22' W 003°30'3 2.6
2017-Feb-15 13:33N 47°20' W 003°27'2 2.1
2017-Feb-15 12:33N 47°22' W 003°28'1 1.2
2017-Feb-15 11:33N 47°22' W 003°30'2 1.7
2017-Feb-15 10:33N 47°21' W 003°28'2 2.2
2017-Feb-15 09:33N 47°20' W 003°26'4 3.7
2017-Feb-15 08:33N 47°22' W 003°30'1 1.2
2017-Feb-15 07:33N 47°22' W 003°28'1 1.1
2017-Feb-15 06:33N 47°21' W 003°28'4 3.6
2017-Feb-15 05:33N 47°24' W 003°29'4 3.8
2017-Feb-15 04:33N 47°28' W 003°30'4 3.8
2017-Feb-15 03:33N 47°32' W 003°30'8 8.2
2017-Feb-15 02:33N 47°38' W 003°23'5 5.4
2017-Feb-15 01:33N 47°44' W 003°22'3 2.5
2017-Feb-15 00:33N 47°41' W 003°22'9 8.8
2017-Feb-14 23:33N 47°33' W 003°28'  

Dump ship's entire track history